sensor_id;sensor_type;location;lat;lon;timestamp;P1;durP1;ratioP1;P2;durP2;ratioP2
6955;SDS011;50345;51.136;16.886;2023-04-03T00:01:01;5.83;;;3.30;;
6955;SDS011;50345;51.136;16.886;2023-04-03T00:03:27;8.60;;;2.75;;
6955;SDS011;50345;51.136;16.886;2023-04-03T00:05:52;4.60;;;3.20;;
6955;SDS011;50345;51.136;16.886;2023-04-03T00:08:18;6.60;;;2.70;;
6955;SDS011;50345;51.136;16.886;2023-04-03T00:10:44;7.75;;;3.08;;
6955;SDS011;50345;51.136;16.886;2023-04-03T00:13:10;2.63;;;2.23;;
6955;SDS011;50345;51.136;16.886;2023-04-03T00:15:36;5.82;;;2.45;;
6955;SDS011;50345;51.136;16.886;2023-04-03T00:18:03;4.90;;;2.83;;
6955;SDS011;50345;51.136;16.886;2023-04-03T00:20:29;4.85;;;2.55;;
6955;SDS011;50345;51.136;16.886;2023-04-03T00:22:55;5.10;;;2.83;;
6955;SDS011;50345;51.136;16.886;2023-04-03T00:25:21;3.17;;;2.30;;
6955;SDS011;50345;51.136;16.886;2023-04-03T00:27:47;5.78;;;2.47;;
6955;SDS011;50345;51.136;16.886;2023-04-03T00:30:14;2.67;;;2.10;;
6955;SDS011;50345;51.136;16.886;2023-04-03T00:32:41;4.05;;;2.50;;
6955;SDS011;50345;51.136;16.886;2023-04-03T00:35:06;8.00;;;3.57;;
6955;SDS011;50345;51.136;16.886;2023-04-03T00:37:33;8.77;;;3.03;;
6955;SDS011;50345;51.136;16.886;2023-04-03T00:39:58;3.37;;;2.40;;
6955;SDS011;50345;51.136;16.886;2023-04-03T00:42:24;6.33;;;2.60;;
6955;SDS011;50345;51.136;16.886;2023-04-03T00:47:22;5.20;;;3.00;;
6955;SDS011;50345;51.136;16.886;2023-04-03T00:49:48;7.72;;;3.42;;
6955;SDS011;50345;51.136;16.886;2023-04-03T00:52:16;6.13;;;2.83;;
6955;SDS011;50345;51.136;16.886;2023-04-03T00:54:45;4.60;;;2.15;;
6955;SDS011;50345;51.136;16.886;2023-04-03T00:57:13;3.85;;;2.90;;
6955;SDS011;50345;51.136;16.886;2023-04-03T00:59:42;3.85;;;2.10;;
6955;SDS011;50345;51.136;16.886;2023-04-03T01:02:13;2.50;;;2.30;;
6955;SDS011;50345;51.136;16.886;2023-04-03T01:04:40;3.27;;;2.50;;
6955;SDS011;50345;51.136;16.886;2023-04-03T01:09:35;2.92;;;2.47;;
6955;SDS011;50345;51.136;16.886;2023-04-03T01:12:18;6.10;;;2.83;;
6955;SDS011;50345;51.136;16.886;2023-04-03T01:14:49;5.15;;;3.30;;
6955;SDS011;50345;51.136;16.886;2023-04-03T01:25:23;6.53;;;3.38;;
6955;SDS011;50345;51.136;16.886;2023-04-03T01:27:49;4.60;;;2.53;;
6955;SDS011;50345;51.136;16.886;2023-04-03T01:30:16;4.03;;;3.17;;
6955;SDS011;50345;51.136;16.886;2023-04-03T01:32:43;4.18;;;2.90;;
6955;SDS011;50345;51.136;16.886;2023-04-03T01:35:10;7.10;;;2.50;;
6955;SDS011;50345;51.136;16.886;2023-04-03T01:37:36;5.43;;;2.10;;
6955;SDS011;50345;51.136;16.886;2023-04-03T01:40:02;6.60;;;3.00;;
6955;SDS011;50345;51.136;16.886;2023-04-03T01:42:28;5.20;;;2.63;;
6955;SDS011;50345;51.136;16.886;2023-04-03T01:44:54;6.40;;;3.27;;
6955;SDS011;50345;51.136;16.886;2023-04-03T01:47:20;6.20;;;3.07;;
6955;SDS011;50345;51.136;16.886;2023-04-03T01:49:46;5.57;;;2.65;;
6955;SDS011;50345;51.136;16.886;2023-04-03T01:52:11;2.83;;;2.10;;
6955;SDS011;50345;51.136;16.886;2023-04-03T01:54:37;3.33;;;2.57;;
6955;SDS011;50345;51.136;16.886;2023-04-03T01:57:03;2.80;;;1.90;;
6955;SDS011;50345;51.136;16.886;2023-04-03T01:59:28;4.40;;;2.53;;
6955;SDS011;50345;51.136;16.886;2023-04-03T02:01:54;4.57;;;2.37;;
6955;SDS011;50345;51.136;16.886;2023-04-03T02:04:20;6.50;;;3.20;;
6955;SDS011;50345;51.136;16.886;2023-04-03T02:06:45;5.50;;;2.53;;
6955;SDS011;50345;51.136;16.886;2023-04-03T02:09:11;5.73;;;2.60;;
6955;SDS011;50345;51.136;16.886;2023-04-03T02:11:37;6.57;;;2.20;;
6955;SDS011;50345;51.136;16.886;2023-04-03T02:14:03;5.80;;;3.40;;
6955;SDS011;50345;51.136;16.886;2023-04-03T02:16:29;4.60;;;2.50;;
6955;SDS011;50345;51.136;16.886;2023-04-03T02:18:55;7.80;;;5.05;;
6955;SDS011;50345;51.136;16.886;2023-04-03T02:21:21;9.90;;;6.80;;
6955;SDS011;50345;51.136;16.886;2023-04-03T02:23:47;8.87;;;4.60;;
6955;SDS011;50345;51.136;16.886;2023-04-03T02:26:13;5.20;;;2.80;;
6955;SDS011;50345;51.136;16.886;2023-04-03T02:28:40;3.10;;;2.83;;
6955;SDS011;50345;51.136;16.886;2023-04-03T02:31:06;5.40;;;3.10;;
6955;SDS011;50345;51.136;16.886;2023-04-03T02:33:32;4.43;;;3.13;;
6955;SDS011;50345;51.136;16.886;2023-04-03T02:35:58;4.60;;;3.20;;
6955;SDS011;50345;51.136;16.886;2023-04-03T02:38:25;4.60;;;2.70;;
6955;SDS011;50345;51.136;16.886;2023-04-03T02:40:51;9.18;;;3.08;;
6955;SDS011;50345;51.136;16.886;2023-04-03T02:43:17;6.90;;;3.22;;
6955;SDS011;50345;51.136;16.886;2023-04-03T02:45:43;7.72;;;2.63;;
6955;SDS011;50345;51.136;16.886;2023-04-03T02:48:09;5.30;;;2.10;;
6955;SDS011;50345;51.136;16.886;2023-04-03T02:50:34;5.37;;;2.40;;
6955;SDS011;50345;51.136;16.886;2023-04-03T02:53:00;5.40;;;2.57;;
6955;SDS011;50345;51.136;16.886;2023-04-03T02:55:26;4.80;;;3.70;;
6955;SDS011;50345;51.136;16.886;2023-04-03T02:57:51;7.80;;;2.30;;
6955;SDS011;50345;51.136;16.886;2023-04-03T03:00:17;3.80;;;2.40;;
6955;SDS011;50345;51.136;16.886;2023-04-03T03:02:43;2.60;;;2.35;;
6955;SDS011;50345;51.136;16.886;2023-04-03T03:05:08;2.63;;;2.43;;
6955;SDS011;50345;51.136;16.886;2023-04-03T03:07:34;8.40;;;2.60;;
6955;SDS011;50345;51.136;16.886;2023-04-03T03:10:00;5.00;;;2.73;;
6955;SDS011;50345;51.136;16.886;2023-04-03T03:12:25;3.23;;;1.90;;
6955;SDS011;50345;51.136;16.886;2023-04-03T03:14:51;3.03;;;2.83;;
6955;SDS011;50345;51.136;16.886;2023-04-03T03:17:17;3.60;;;2.67;;
6955;SDS011;50345;51.136;16.886;2023-04-03T03:19:43;9.13;;;3.30;;
6955;SDS011;50345;51.136;16.886;2023-04-03T03:22:10;3.97;;;2.60;;
6955;SDS011;50345;51.136;16.886;2023-04-03T03:24:36;2.73;;;2.07;;
6955;SDS011;50345;51.136;16.886;2023-04-03T03:27:02;3.97;;;2.37;;
6955;SDS011;50345;51.136;16.886;2023-04-03T03:29:27;4.30;;;1.93;;
6955;SDS011;50345;51.136;16.886;2023-04-03T03:31:53;12.67;;;2.50;;
6955;SDS011;50345;51.136;16.886;2023-04-03T03:34:18;7.60;;;3.37;;
6955;SDS011;50345;51.136;16.886;2023-04-03T03:36:44;2.50;;;2.30;;
6955;SDS011;50345;51.136;16.886;2023-04-03T03:39:10;4.30;;;2.77;;
6955;SDS011;50345;51.136;16.886;2023-04-03T03:41:36;1.70;;;1.60;;
6955;SDS011;50345;51.136;16.886;2023-04-03T03:44:01;5.77;;;2.80;;
6955;SDS011;50345;51.136;16.886;2023-04-03T03:46:27;3.77;;;2.80;;
6955;SDS011;50345;51.136;16.886;2023-04-03T03:48:52;6.50;;;2.37;;
6955;SDS011;50345;51.136;16.886;2023-04-03T03:51:18;6.53;;;2.90;;
6955;SDS011;50345;51.136;16.886;2023-04-03T03:53:44;3.30;;;2.47;;
6955;SDS011;50345;51.136;16.886;2023-04-03T03:56:10;6.80;;;2.95;;
6955;SDS011;50345;51.136;16.886;2023-04-03T03:58:36;3.63;;;3.00;;
6955;SDS011;50345;51.136;16.886;2023-04-03T04:01:02;4.65;;;2.15;;
6955;SDS011;50345;51.136;16.886;2023-04-03T04:03:30;5.10;;;2.58;;
6955;SDS011;50345;51.136;16.886;2023-04-03T04:05:56;2.97;;;2.43;;
6955;SDS011;50345;51.136;16.886;2023-04-03T04:08:22;2.67;;;2.00;;
6955;SDS011;50345;51.136;16.886;2023-04-03T04:10:48;4.35;;;2.53;;
6955;SDS011;50345;51.136;16.886;2023-04-03T04:13:14;4.93;;;2.73;;
6955;SDS011;50345;51.136;16.886;2023-04-03T04:15:39;6.60;;;3.07;;
6955;SDS011;50345;51.136;16.886;2023-04-03T04:18:05;4.43;;;2.57;;
6955;SDS011;50345;51.136;16.886;2023-04-03T04:20:31;5.13;;;2.50;;
6955;SDS011;50345;51.136;16.886;2023-04-03T04:22:57;4.60;;;3.23;;
6955;SDS011;50345;51.136;16.886;2023-04-03T04:25:22;3.90;;;2.53;;
6955;SDS011;50345;51.136;16.886;2023-04-03T04:27:48;7.73;;;2.47;;
6955;SDS011;50345;51.136;16.886;2023-04-03T04:30:13;4.37;;;2.30;;
6955;SDS011;50345;51.136;16.886;2023-04-03T04:32:39;3.15;;;2.40;;
6955;SDS011;50345;51.136;16.886;2023-04-03T04:35:05;4.40;;;2.70;;
6955;SDS011;50345;51.136;16.886;2023-04-03T04:37:31;5.47;;;2.95;;
6955;SDS011;50345;51.136;16.886;2023-04-03T04:39:57;6.47;;;2.58;;
6955;SDS011;50345;51.136;16.886;2023-04-03T04:42:23;5.03;;;2.70;;
6955;SDS011;50345;51.136;16.886;2023-04-03T04:44:49;4.47;;;2.60;;
6955;SDS011;50345;51.136;16.886;2023-04-03T04:47:15;4.23;;;2.10;;
6955;SDS011;50345;51.136;16.886;2023-04-03T04:49:41;5.57;;;2.58;;
6955;SDS011;50345;51.136;16.886;2023-04-03T04:52:07;3.73;;;2.50;;
6955;SDS011;50345;51.136;16.886;2023-04-03T04:54:32;5.10;;;2.80;;
6955;SDS011;50345;51.136;16.886;2023-04-03T04:56:58;4.13;;;2.30;;
6955;SDS011;50345;51.136;16.886;2023-04-03T04:59:24;3.13;;;2.23;;
6955;SDS011;50345;51.136;16.886;2023-04-03T05:01:49;4.60;;;2.70;;
6955;SDS011;50345;51.136;16.886;2023-04-03T05:04:15;4.33;;;2.77;;
6955;SDS011;50345;51.136;16.886;2023-04-03T05:06:42;3.40;;;2.33;;
6955;SDS011;50345;51.136;16.886;2023-04-03T05:09:07;4.20;;;2.03;;
6955;SDS011;50345;51.136;16.886;2023-04-03T05:11:34;7.18;;;2.85;;
6955;SDS011;50345;51.136;16.886;2023-04-03T05:14:01;6.53;;;2.60;;
6955;SDS011;50345;51.136;16.886;2023-04-03T05:16:26;5.30;;;3.00;;
6955;SDS011;50345;51.136;16.886;2023-04-03T05:18:52;3.78;;;2.55;;
6955;SDS011;50345;51.136;16.886;2023-04-03T05:21:18;5.13;;;2.93;;
6955;SDS011;50345;51.136;16.886;2023-04-03T05:23:44;4.60;;;2.60;;
6955;SDS011;50345;51.136;16.886;2023-04-03T05:26:09;5.27;;;2.70;;
6955;SDS011;50345;51.136;16.886;2023-04-03T05:28:35;5.17;;;2.70;;
6955;SDS011;50345;51.136;16.886;2023-04-03T05:31:01;7.60;;;2.80;;
6955;SDS011;50345;51.136;16.886;2023-04-03T05:33:27;2.00;;;1.63;;
6955;SDS011;50345;51.136;16.886;2023-04-03T05:35:53;4.13;;;2.83;;
6955;SDS011;50345;51.136;16.886;2023-04-03T05:38:19;7.60;;;4.55;;
6955;SDS011;50345;51.136;16.886;2023-04-03T05:40:45;4.47;;;2.57;;
6955;SDS011;50345;51.136;16.886;2023-04-03T05:43:12;4.47;;;2.90;;
6955;SDS011;50345;51.136;16.886;2023-04-03T05:45:37;3.38;;;2.20;;
6955;SDS011;50345;51.136;16.886;2023-04-03T05:48:03;5.60;;;2.90;;
6955;SDS011;50345;51.136;16.886;2023-04-03T05:50:29;4.40;;;2.57;;
6955;SDS011;50345;51.136;16.886;2023-04-03T05:52:55;2.73;;;2.50;;
6955;SDS011;50345;51.136;16.886;2023-04-03T05:55:23;7.50;;;2.63;;
6955;SDS011;50345;51.136;16.886;2023-04-03T05:57:49;2.63;;;2.10;;
6955;SDS011;50345;51.136;16.886;2023-04-03T06:00:15;5.07;;;2.63;;
6955;SDS011;50345;51.136;16.886;2023-04-03T06:02:41;5.97;;;3.08;;
6955;SDS011;50345;51.136;16.886;2023-04-03T06:05:08;7.75;;;3.45;;
6955;SDS011;50345;51.136;16.886;2023-04-03T06:07:34;4.05;;;2.28;;
6955;SDS011;50345;51.136;16.886;2023-04-03T06:10:00;4.78;;;2.40;;
6955;SDS011;50345;51.136;16.886;2023-04-03T06:12:27;3.65;;;2.53;;
6955;SDS011;50345;51.136;16.886;2023-04-03T06:14:54;3.42;;;2.25;;
6955;SDS011;50345;51.136;16.886;2023-04-03T06:17:20;4.30;;;2.63;;
6955;SDS011;50345;51.136;16.886;2023-04-03T06:19:46;4.22;;;2.67;;
6955;SDS011;50345;51.136;16.886;2023-04-03T06:22:12;2.87;;;2.37;;
6955;SDS011;50345;51.136;16.886;2023-04-03T06:24:38;3.10;;;2.20;;
6955;SDS011;50345;51.136;16.886;2023-04-03T06:27:05;3.03;;;2.65;;
6955;SDS011;50345;51.136;16.886;2023-04-03T06:29:31;9.50;;;4.87;;
6955;SDS011;50345;51.136;16.886;2023-04-03T06:31:56;9.63;;;4.40;;
6955;SDS011;50345;51.136;16.886;2023-04-03T06:34:22;9.23;;;4.90;;
6955;SDS011;50345;51.136;16.886;2023-04-03T06:36:48;6.53;;;3.67;;
6955;SDS011;50345;51.136;16.886;2023-04-03T06:39:16;7.05;;;5.38;;
6955;SDS011;50345;51.136;16.886;2023-04-03T06:41:45;4.80;;;3.13;;
6955;SDS011;50345;51.136;16.886;2023-04-03T06:44:11;9.37;;;3.97;;
6955;SDS011;50345;51.136;16.886;2023-04-03T06:46:38;4.93;;;3.30;;
6955;SDS011;50345;51.136;16.886;2023-04-03T06:49:04;7.55;;;3.92;;
6955;SDS011;50345;51.136;16.886;2023-04-03T06:51:32;3.45;;;3.15;;
6955;SDS011;50345;51.136;16.886;2023-04-03T06:53:59;7.28;;;3.45;;
6955;SDS011;50345;51.136;16.886;2023-04-03T06:56:25;5.38;;;4.18;;
6955;SDS011;50345;51.136;16.886;2023-04-03T06:58:52;8.02;;;3.50;;
6955;SDS011;50345;51.136;16.886;2023-04-03T07:01:23;5.57;;;2.90;;
6955;SDS011;50345;51.136;16.886;2023-04-03T07:03:51;6.38;;;2.70;;
6955;SDS011;50345;51.136;16.886;2023-04-03T07:06:17;5.80;;;3.75;;
6955;SDS011;50345;51.136;16.886;2023-04-03T07:08:43;4.80;;;3.55;;
6955;SDS011;50345;51.136;16.886;2023-04-03T07:11:10;6.50;;;4.03;;
6955;SDS011;50345;51.136;16.886;2023-04-03T07:13:37;3.53;;;2.80;;
6955;SDS011;50345;51.136;16.886;2023-04-03T07:16:03;5.00;;;3.05;;
6955;SDS011;50345;51.136;16.886;2023-04-03T07:18:30;3.72;;;2.22;;
6955;SDS011;50345;51.136;16.886;2023-04-03T07:20:57;3.88;;;2.95;;
6955;SDS011;50345;51.136;16.886;2023-04-03T07:23:22;5.72;;;3.15;;
6955;SDS011;50345;51.136;16.886;2023-04-03T07:25:49;3.40;;;2.85;;
6955;SDS011;50345;51.136;16.886;2023-04-03T07:28:16;4.15;;;2.25;;
6955;SDS011;50345;51.136;16.886;2023-04-03T07:30:46;6.30;;;2.35;;
6955;SDS011;50345;51.136;16.886;2023-04-03T07:33:17;3.80;;;2.97;;
6955;SDS011;50345;51.136;16.886;2023-04-03T07:35:45;8.80;;;2.58;;
6955;SDS011;50345;51.136;16.886;2023-04-03T07:38:11;6.03;;;2.73;;
6955;SDS011;50345;51.136;16.886;2023-04-03T07:40:37;6.03;;;3.13;;
6955;SDS011;50345;51.136;16.886;2023-04-03T07:43:04;3.67;;;2.83;;
6955;SDS011;50345;51.136;16.886;2023-04-03T07:45:30;7.88;;;2.70;;
6955;SDS011;50345;51.136;16.886;2023-04-03T07:47:59;3.05;;;2.45;;
6955;SDS011;50345;51.136;16.886;2023-04-03T07:50:25;3.85;;;2.88;;
6955;SDS011;50345;51.136;16.886;2023-04-03T07:52:52;7.20;;;2.70;;
6955;SDS011;50345;51.136;16.886;2023-04-03T07:55:19;5.45;;;3.00;;
6955;SDS011;50345;51.136;16.886;2023-04-03T07:57:45;5.87;;;2.47;;
6955;SDS011;50345;51.136;16.886;2023-04-03T08:00:11;4.47;;;2.65;;
6955;SDS011;50345;51.136;16.886;2023-04-03T08:02:37;6.75;;;3.28;;
6955;SDS011;50345;51.136;16.886;2023-04-03T08:05:03;4.00;;;2.40;;
6955;SDS011;50345;51.136;16.886;2023-04-03T08:07:29;4.35;;;2.72;;
6955;SDS011;50345;51.136;16.886;2023-04-03T08:09:55;3.10;;;2.40;;
6955;SDS011;50345;51.136;16.886;2023-04-03T08:12:21;4.32;;;3.45;;
6955;SDS011;50345;51.136;16.886;2023-04-03T08:14:47;3.50;;;2.05;;
6955;SDS011;50345;51.136;16.886;2023-04-03T08:17:13;4.63;;;2.63;;
6955;SDS011;50345;51.136;16.886;2023-04-03T08:19:39;6.90;;;3.30;;
6955;SDS011;50345;51.136;16.886;2023-04-03T08:22:05;3.72;;;2.35;;
6955;SDS011;50345;51.136;16.886;2023-04-03T08:24:31;2.80;;;1.92;;
6955;SDS011;50345;51.136;16.886;2023-04-03T08:26:57;2.80;;;2.03;;
6955;SDS011;50345;51.136;16.886;2023-04-03T08:29:24;3.47;;;2.00;;
6955;SDS011;50345;51.136;16.886;2023-04-03T08:31:49;4.72;;;2.80;;
6955;SDS011;50345;51.136;16.886;2023-04-03T08:34:16;10.57;;;2.40;;
6955;SDS011;50345;51.136;16.886;2023-04-03T08:36:42;2.42;;;1.63;;
6955;SDS011;50345;51.136;16.886;2023-04-03T08:39:08;3.23;;;2.27;;
6955;SDS011;50345;51.136;16.886;2023-04-03T08:41:35;2.58;;;1.85;;
6955;SDS011;50345;51.136;16.886;2023-04-03T08:47:11;6.28;;;2.60;;
6955;SDS011;50345;51.136;16.886;2023-04-03T08:49:53;4.65;;;2.72;;
6955;SDS011;50345;51.136;16.886;2023-04-03T08:55:06;2.17;;;1.92;;
6955;SDS011;50345;51.136;16.886;2023-04-03T08:57:41;2.65;;;2.45;;
6955;SDS011;50345;51.136;16.886;2023-04-03T09:02:46;2.50;;;2.30;;
6955;SDS011;50345;51.136;16.886;2023-04-03T09:05:15;2.65;;;1.92;;
6955;SDS011;50345;51.136;16.886;2023-04-03T09:07:47;3.70;;;2.28;;
6955;SDS011;50345;51.136;16.886;2023-04-03T09:10:22;3.22;;;1.73;;
6955;SDS011;50345;51.136;16.886;2023-04-03T09:12:51;3.33;;;2.40;;
6955;SDS011;50345;51.136;16.886;2023-04-03T09:15:24;2.28;;;2.00;;
6955;SDS011;50345;51.136;16.886;2023-04-03T09:18:02;3.80;;;2.28;;
6955;SDS011;50345;51.136;16.886;2023-04-03T09:23:38;3.10;;;1.83;;
6955;SDS011;50345;51.136;16.886;2023-04-03T09:26:16;4.55;;;2.08;;
6955;SDS011;50345;51.136;16.886;2023-04-03T09:28:45;2.60;;;1.70;;
6955;SDS011;50345;51.136;16.886;2023-04-03T09:31:14;2.60;;;1.80;;
6955;SDS011;50345;51.136;16.886;2023-04-03T09:33:49;2.40;;;1.90;;
6955;SDS011;50345;51.136;16.886;2023-04-03T09:39:05;1.70;;;1.60;;
6955;SDS011;50345;51.136;16.886;2023-04-03T09:41:34;2.78;;;1.73;;
6955;SDS011;50345;51.136;16.886;2023-04-03T09:44:00;1.63;;;1.43;;
6955;SDS011;50345;51.136;16.886;2023-04-03T09:48:57;4.38;;;1.98;;
6955;SDS011;50345;51.136;16.886;2023-04-03T09:51:28;3.22;;;1.95;;
6955;SDS011;50345;51.136;16.886;2023-04-03T09:53:56;4.47;;;2.40;;
6955;SDS011;50345;51.136;16.886;2023-04-03T09:56:28;3.30;;;1.63;;
6955;SDS011;50345;51.136;16.886;2023-04-03T10:04:02;3.30;;;2.10;;
6955;SDS011;50345;51.136;16.886;2023-04-03T10:06:29;2.95;;;1.90;;
6955;SDS011;50345;51.136;16.886;2023-04-03T10:09:31;4.15;;;2.80;;
6955;SDS011;50345;51.136;16.886;2023-04-03T10:12:12;3.38;;;1.77;;
6955;SDS011;50345;51.136;16.886;2023-04-03T10:19:55;3.67;;;2.15;;
6955;SDS011;50345;51.136;16.886;2023-04-03T10:22:48;2.33;;;1.73;;
6955;SDS011;50345;51.136;16.886;2023-04-03T10:28:14;3.63;;;2.30;;
6955;SDS011;50345;51.136;16.886;2023-04-03T10:33:32;2.90;;;1.50;;
6955;SDS011;50345;51.136;16.886;2023-04-03T10:36:42;3.60;;;1.58;;
6955;SDS011;50345;51.136;16.886;2023-04-03T10:47:24;2.25;;;2.00;;
6955;SDS011;50345;51.136;16.886;2023-04-03T10:50:00;2.97;;;2.50;;
6955;SDS011;50345;51.136;16.886;2023-04-03T10:52:33;3.00;;;2.63;;
6955;SDS011;50345;51.136;16.886;2023-04-03T10:57:44;3.55;;;2.45;;
6955;SDS011;50345;51.136;16.886;2023-04-03T11:00:21;4.78;;;2.95;;
6955;SDS011;50345;51.136;16.886;2023-04-03T11:02:55;3.17;;;2.30;;
6955;SDS011;50345;51.136;16.886;2023-04-03T11:05:31;2.47;;;1.60;;
6955;SDS011;50345;51.136;16.886;2023-04-03T11:10:58;2.47;;;2.28;;
6955;SDS011;50345;51.136;16.886;2023-04-03T11:13:38;3.80;;;2.80;;
6955;SDS011;50345;51.136;16.886;2023-04-03T11:16:08;2.75;;;2.40;;
6955;SDS011;50345;51.136;16.886;2023-04-03T11:18:39;2.72;;;1.98;;
6955;SDS011;50345;51.136;16.886;2023-04-03T11:21:12;4.18;;;1.90;;
6955;SDS011;50345;51.136;16.886;2023-04-03T11:23:47;2.17;;;1.73;;
6955;SDS011;50345;51.136;16.886;2023-04-03T11:26:15;4.68;;;2.17;;
6955;SDS011;50345;51.136;16.886;2023-04-03T11:28:45;2.22;;;1.65;;
6955;SDS011;50345;51.136;16.886;2023-04-03T11:34:30;2.35;;;1.90;;
6955;SDS011;50345;51.136;16.886;2023-04-03T11:39:57;1.83;;;1.73;;
6955;SDS011;50345;51.136;16.886;2023-04-03T11:42:48;4.70;;;2.20;;
6955;SDS011;50345;51.136;16.886;2023-04-03T11:50:56;5.72;;;2.67;;
6955;SDS011;50345;51.136;16.886;2023-04-03T11:53:36;3.83;;;2.70;;
6955;SDS011;50345;51.136;16.886;2023-04-03T12:04:16;3.65;;;2.10;;
6955;SDS011;50345;51.136;16.886;2023-04-03T12:09:23;2.80;;;1.83;;
6955;SDS011;50345;51.136;16.886;2023-04-03T12:14:54;2.13;;;1.93;;
6955;SDS011;50345;51.136;16.886;2023-04-03T12:17:22;2.90;;;2.37;;
6955;SDS011;50345;51.136;16.886;2023-04-03T12:19:51;3.23;;;2.67;;
6955;SDS011;50345;51.136;16.886;2023-04-03T12:22:17;2.17;;;2.07;;
6955;SDS011;50345;51.136;16.886;2023-04-03T12:24:46;2.83;;;1.90;;
6955;SDS011;50345;51.136;16.886;2023-04-03T12:43:40;3.90;;;2.40;;
6955;SDS011;50345;51.136;16.886;2023-04-03T12:46:36;3.67;;;2.43;;
6955;SDS011;50345;51.136;16.886;2023-04-03T12:51:57;4.20;;;2.80;;
6955;SDS011;50345;51.136;16.886;2023-04-03T12:54:30;3.50;;;2.33;;
6955;SDS011;50345;51.136;16.886;2023-04-03T12:59:38;2.80;;;2.60;;
6955;SDS011;50345;51.136;16.886;2023-04-03T13:02:10;4.05;;;2.00;;
6955;SDS011;50345;51.136;16.886;2023-04-03T13:04:59;3.17;;;2.58;;
6955;SDS011;50345;51.136;16.886;2023-04-03T13:07:32;3.47;;;2.13;;
6955;SDS011;50345;51.136;16.886;2023-04-03T13:12:34;4.57;;;3.87;;
6955;SDS011;50345;51.136;16.886;2023-04-03T13:15:03;6.33;;;4.60;;
6955;SDS011;50345;51.136;16.886;2023-04-03T13:17:47;4.73;;;4.00;;
6955;SDS011;50345;51.136;16.886;2023-04-03T13:23:04;2.27;;;2.00;;
6955;SDS011;50345;51.136;16.886;2023-04-03T13:25:33;3.60;;;2.40;;
6955;SDS011;50345;51.136;16.886;2023-04-03T13:28:02;4.65;;;2.75;;
6955;SDS011;50345;51.136;16.886;2023-04-03T13:30:31;3.50;;;3.10;;
6955;SDS011;50345;51.136;16.886;2023-04-03T13:33:02;2.20;;;2.00;;
6955;SDS011;50345;51.136;16.886;2023-04-03T13:38:04;4.00;;;2.43;;
6955;SDS011;50345;51.136;16.886;2023-04-03T13:40:51;3.67;;;2.80;;
6955;SDS011;50345;51.136;16.886;2023-04-03T13:43:26;2.73;;;2.07;;
6955;SDS011;50345;51.136;16.886;2023-04-03T13:46:38;2.10;;;1.90;;
6955;SDS011;50345;51.136;16.886;2023-04-03T13:48:42;3.40;;;2.30;;
6955;SDS011;50345;51.136;16.886;2023-04-03T13:54:16;2.53;;;2.30;;
6955;SDS011;50345;51.136;16.886;2023-04-03T13:56:42;3.43;;;2.70;;
6955;SDS011;50345;51.136;16.886;2023-04-03T14:01:42;2.63;;;2.43;;
6955;SDS011;50345;51.136;16.886;2023-04-03T14:04:20;3.37;;;2.80;;
6955;SDS011;50345;51.136;16.886;2023-04-03T14:06:49;2.97;;;2.60;;
6955;SDS011;50345;51.136;16.886;2023-04-03T14:09:15;5.80;;;3.53;;
6955;SDS011;50345;51.136;16.886;2023-04-03T14:11:43;3.30;;;2.97;;
6955;SDS011;50345;51.136;16.886;2023-04-03T14:14:14;4.32;;;3.10;;
6955;SDS011;50345;51.136;16.886;2023-04-03T14:16:43;4.55;;;2.92;;
6955;SDS011;50345;51.136;16.886;2023-04-03T14:19:17;3.38;;;3.08;;
6955;SDS011;50345;51.136;16.886;2023-04-03T14:21:51;2.53;;;2.30;;
6955;SDS011;50345;51.136;16.886;2023-04-03T14:24:19;2.70;;;2.50;;
6955;SDS011;50345;51.136;16.886;2023-04-03T14:26:46;4.65;;;2.72;;
6955;SDS011;50345;51.136;16.886;2023-04-03T14:29:12;4.47;;;4.07;;
6955;SDS011;50345;51.136;16.886;2023-04-03T14:31:38;2.80;;;2.55;;
6955;SDS011;50345;51.136;16.886;2023-04-03T14:34:05;2.30;;;2.10;;
6955;SDS011;50345;51.136;16.886;2023-04-03T14:36:31;3.00;;;2.50;;
6955;SDS011;50345;51.136;16.886;2023-04-03T14:38:59;3.95;;;2.65;;
6955;SDS011;50345;51.136;16.886;2023-04-03T14:41:26;4.13;;;3.10;;
6955;SDS011;50345;51.136;16.886;2023-04-03T14:43:52;1.92;;;1.73;;
6955;SDS011;50345;51.136;16.886;2023-04-03T14:46:24;3.05;;;2.55;;
6955;SDS011;50345;51.136;16.886;2023-04-03T14:48:53;4.72;;;3.28;;
6955;SDS011;50345;51.136;16.886;2023-04-03T14:51:19;2.67;;;2.47;;
6955;SDS011;50345;51.136;16.886;2023-04-03T14:53:45;4.38;;;4.07;;
6955;SDS011;50345;51.136;16.886;2023-04-03T14:56:29;3.83;;;2.97;;
6955;SDS011;50345;51.136;16.886;2023-04-03T14:58:55;3.80;;;3.50;;
6955;SDS011;50345;51.136;16.886;2023-04-03T15:01:23;3.35;;;3.05;;
6955;SDS011;50345;51.136;16.886;2023-04-03T15:03:49;3.38;;;2.80;;
6955;SDS011;50345;51.136;16.886;2023-04-03T15:06:15;5.17;;;3.37;;
6955;SDS011;50345;51.136;16.886;2023-04-03T15:08:41;3.40;;;3.10;;
6955;SDS011;50345;51.136;16.886;2023-04-03T15:11:10;4.18;;;3.17;;
6955;SDS011;50345;51.136;16.886;2023-04-03T15:13:37;4.93;;;3.45;;
6955;SDS011;50345;51.136;16.886;2023-04-03T15:16:04;4.63;;;3.67;;
6955;SDS011;50345;51.136;16.886;2023-04-03T15:18:32;8.05;;;6.50;;
6955;SDS011;50345;51.136;16.886;2023-04-03T15:21:02;8.77;;;6.45;;
6955;SDS011;50345;51.136;16.886;2023-04-03T15:23:28;7.93;;;5.72;;
6955;SDS011;50345;51.136;16.886;2023-04-03T15:25:55;4.10;;;3.80;;
6955;SDS011;50345;51.136;16.886;2023-04-03T15:30:50;3.80;;;3.40;;
6955;SDS011;50345;51.136;16.886;2023-04-03T15:33:15;2.70;;;2.20;;
6955;SDS011;50345;51.136;16.886;2023-04-03T15:35:41;4.90;;;2.97;;
6955;SDS011;50345;51.136;16.886;2023-04-03T15:38:08;5.75;;;3.63;;
6955;SDS011;50345;51.136;16.886;2023-04-03T15:40:34;3.60;;;3.20;;
6955;SDS011;50345;51.136;16.886;2023-04-03T15:43:00;5.37;;;3.77;;
6955;SDS011;50345;51.136;16.886;2023-04-03T15:45:28;4.23;;;3.93;;
6955;SDS011;50345;51.136;16.886;2023-04-03T15:47:55;4.75;;;3.72;;
6955;SDS011;50345;51.136;16.886;2023-04-03T15:50:21;5.50;;;4.40;;
6955;SDS011;50345;51.136;16.886;2023-04-03T15:52:49;6.50;;;2.83;;
6955;SDS011;50345;51.136;16.886;2023-04-03T15:55:23;3.95;;;2.97;;
6955;SDS011;50345;51.136;16.886;2023-04-03T15:57:50;3.58;;;3.28;;
6955;SDS011;50345;51.136;16.886;2023-04-03T16:00:16;3.92;;;3.08;;
6955;SDS011;50345;51.136;16.886;2023-04-03T16:02:42;5.70;;;3.57;;
6955;SDS011;50345;51.136;16.886;2023-04-03T16:05:10;4.75;;;3.30;;
6955;SDS011;50345;51.136;16.886;2023-04-03T16:07:40;4.18;;;3.20;;
6955;SDS011;50345;51.136;16.886;2023-04-03T16:10:07;3.83;;;3.10;;
6955;SDS011;50345;51.136;16.886;2023-04-03T16:12:33;4.25;;;3.85;;
6955;SDS011;50345;51.136;16.886;2023-04-03T16:14:59;4.07;;;3.67;;
6955;SDS011;50345;51.136;16.886;2023-04-03T16:17:25;3.20;;;2.57;;
6955;SDS011;50345;51.136;16.886;2023-04-03T16:19:52;4.30;;;3.15;;
6955;SDS011;50345;51.136;16.886;2023-04-03T16:22:19;3.10;;;2.90;;
6955;SDS011;50345;51.136;16.886;2023-04-03T16:24:45;3.27;;;2.90;;
6955;SDS011;50345;51.136;16.886;2023-04-03T16:27:11;5.53;;;2.90;;
6955;SDS011;50345;51.136;16.886;2023-04-03T16:29:36;3.50;;;3.20;;
6955;SDS011;50345;51.136;16.886;2023-04-03T16:32:02;4.03;;;3.27;;
6955;SDS011;50345;51.136;16.886;2023-04-03T16:34:28;5.13;;;3.30;;
6955;SDS011;50345;51.136;16.886;2023-04-03T16:36:55;4.25;;;3.30;;
6955;SDS011;50345;51.136;16.886;2023-04-03T16:39:21;4.40;;;3.63;;
6955;SDS011;50345;51.136;16.886;2023-04-03T16:41:47;3.30;;;2.97;;
6955;SDS011;50345;51.136;16.886;2023-04-03T16:44:12;5.13;;;3.27;;
6955;SDS011;50345;51.136;16.886;2023-04-03T16:46:38;5.57;;;4.47;;
6955;SDS011;50345;51.136;16.886;2023-04-03T16:49:04;5.53;;;4.63;;
6955;SDS011;50345;51.136;16.886;2023-04-03T16:51:30;6.87;;;6.10;;
6955;SDS011;50345;51.136;16.886;2023-04-03T16:53:56;11.52;;;10.40;;
6955;SDS011;50345;51.136;16.886;2023-04-03T16:56:22;13.80;;;7.10;;